createdAt,value
2023-06-30T00:11:48.716Z,18.9
2023-06-30T00:26:58.802Z,18.9
2023-06-30T00:42:08.268Z,18.8
2023-06-30T00:57:18.093Z,18.8
2023-06-30T01:12:27.448Z,18.9
2023-06-30T01:27:38.149Z,18.8
2023-06-30T01:42:49.752Z,18.9
2023-06-30T01:57:59.628Z,18.9
2023-06-30T02:13:10.324Z,19
2023-06-30T02:28:20.588Z,19.1
2023-06-30T02:43:30.338Z,19.1
2023-06-30T02:58:39.928Z,19
2023-06-30T03:13:49.909Z,18.9
2023-06-30T03:28:58.637Z,18.9
2023-06-30T03:44:08.351Z,18.7
2023-06-30T03:59:17.674Z,18.6
2023-06-30T04:14:26.979Z,18.5
2023-06-30T04:29:37.274Z,18.5
2023-06-30T04:44:46.887Z,18.4
2023-06-30T04:59:56.909Z,18.4
2023-06-30T05:15:06.697Z,18.3
2023-06-30T05:30:16.489Z,18.1
2023-06-30T05:45:25.979Z,18.1
2023-06-30T06:00:38.577Z,18.1
2023-06-30T06:15:48.027Z,18
2023-06-30T06:30:57.578Z,18.1
2023-06-30T06:46:07.412Z,18
2023-06-30T07:01:17.590Z,18
2023-06-30T07:16:27.618Z,18.1
2023-06-30T07:31:38.996Z,18.3
2023-06-30T07:46:59.044Z,18.4
2023-06-30T08:02:15.671Z,18.5
2023-06-30T08:17:31.490Z,18.3
2023-06-30T08:33:09.668Z,18.3
2023-06-30T08:48:20.052Z,18.3
2023-06-30T09:03:28.878Z,18.2
2023-06-30T09:18:39.870Z,18.6
2023-06-30T09:33:49.845Z,18.9
2023-06-30T09:48:59.902Z,19.3
2023-06-30T10:04:09.546Z,19.5
2023-06-30T10:19:19.985Z,19.9
2023-06-30T10:34:29.212Z,19.5
2023-06-30T10:49:38.722Z,19.3
2023-06-30T11:04:48.603Z,19.3
2023-06-30T11:19:59.316Z,19.5
2023-06-30T11:35:09.201Z,20.3
2023-06-30T11:50:20.952Z,20.7
2023-06-30T12:05:31.504Z,20.5
2023-06-30T12:20:41.576Z,20.8
2023-06-30T12:35:51.044Z,20.7
2023-06-30T12:51:02.191Z,21.8
2023-06-30T13:06:12.924Z,22.7
2023-06-30T13:21:23.319Z,23
2023-06-30T13:36:34.034Z,24.3
2023-06-30T13:51:44.222Z,24.3
2023-06-30T14:07:10.683Z,25.5
2023-06-30T14:22:31.809Z,26.5
2023-06-30T14:40:42.467Z,27.4
2023-06-30T14:55:55.266Z,27.5
2023-06-30T15:11:04.390Z,27.2
2023-06-30T15:26:13.630Z,27.4
2023-06-30T15:41:23.629Z,27.5
2023-06-30T15:56:33.108Z,26.6
2023-06-30T16:11:42.769Z,26.3
2023-06-30T16:26:52.104Z,25.2
2023-06-30T16:42:01.270Z,24.3
2023-06-30T16:57:09.863Z,23.6
2023-06-30T17:12:19.664Z,23.4
2023-06-30T17:27:29.239Z,23
2023-06-30T17:42:38.678Z,22.6
2023-06-30T17:57:48.771Z,22.3
2023-06-30T18:12:58.570Z,22.2
2023-06-30T18:28:08.083Z,22.1
2023-06-30T18:43:17.778Z,21.9
2023-06-30T18:58:27.335Z,21.6
2023-06-30T19:13:36.563Z,21.3
2023-06-30T19:28:46.248Z,21
2023-06-30T19:43:55.576Z,20.6
2023-06-30T19:59:05.500Z,20.4
2023-06-30T20:14:15.151Z,20
2023-06-30T20:29:24.577Z,20
2023-06-30T20:44:35.474Z,19.9
2023-06-30T20:59:47.211Z,19.7
2023-06-30T21:14:56.745Z,19.5
2023-06-30T21:30:06.761Z,19.4
2023-06-30T21:45:16.495Z,19.3
2023-06-30T22:00:25.988Z,19.1
2023-06-30T22:15:35.538Z,19
2023-06-30T22:30:45.176Z,18.9
2023-06-30T22:45:56.274Z,18.8
2023-06-30T23:01:06.255Z,18.6
2023-06-30T23:16:16.260Z,18.5
2023-06-30T23:31:25.923Z,18.4
2023-06-30T23:46:36.120Z,18.2
